Time;durP1;ratioP1;P1;durP2;ratioP2;P2;SDS_P1;SDS_P2;PMS_P1;PMS_P2;Temp;Humidity;BMP_temperature;BMP_pressure;BME280_temperature;BME280_humidity;BME280_pressure;Samples;Min_cycle;Max_cycle;Signal;HPM_P1;HPM_P2
2022/04/01 00:00:19;;;;;;;;;;;2.50;99.90;;;;;;4976556;28;19950;-78
2022/04/01 00:02:45;;;;;;;;;;;2.50;99.90;;;;;;4976296;28;19918;-78
2022/04/01 00:05:11;;;;;;;;;;;2.40;99.90;;;;;;4957226;28;20284;-77
2022/04/01 00:07:38;;;;;;;;;;;2.50;99.90;;;;;;4958334;28;19929;-78
2022/04/01 00:10:09;;;;;;;;;;;2.50;99.90;;;;;;4943030;28;19969;-79
2022/04/01 00:12:40;;;;;;;;;;;2.50;99.90;;;;;;4961068;28;19922;-77
2022/04/01 00:15:06;;;;;;;;;;;2.40;99.90;;;;;;4941350;28;20491;-77
2022/04/01 00:17:31;;;;;;;;;;;2.40;99.90;;;;;;4957930;28;19922;-78
2022/04/01 00:19:57;;;;;;;;;;;2.40;99.90;;;;;;4942465;28;20496;-77
2022/04/01 00:22:25;;;;;;;;;;;2.40;99.90;;;;;;4943024;28;20408;-78
2022/04/01 00:24:51;;;;;;;;;;;2.40;99.90;;;;;;4974512;28;19922;-78
2022/04/01 00:27:17;;;;;;;;;;;2.30;99.90;;;;;;4942954;28;20297;-81
2022/04/01 00:29:46;;;;;;;;;;;2.30;99.90;;;;;;4974225;28;19922;-78
2022/04/01 00:32:12;;;;;;;;;;;2.40;99.90;;;;;;4955088;28;19926;-77
2022/04/01 00:34:38;;;;;;;;;;;2.30;99.90;;;;;;4942601;28;19922;-78
2022/04/01 00:37:04;;;;;;;;;;;2.40;99.90;;;;;;4975920;28;19922;-77
2022/04/01 00:39:31;;;;;;;;;;;2.40;99.90;;;;;;4981836;28;19922;-79
2022/04/01 00:41:58;;;;;;;;;;;2.40;99.90;;;;;;4946308;28;19922;-78
2022/04/01 00:44:24;;;;;;;;;;;2.30;99.90;;;;;;4956598;28;20358;-78
2022/04/01 00:46:53;;;;;;;;;;;2.40;99.90;;;;;;4975852;28;20400;-76
2022/04/01 00:49:23;;;;;;;;;;;2.40;99.90;;;;;;4944821;28;19929;-79
2022/04/01 00:51:49;;;;;;;;;;;2.40;99.90;;;;;;4941377;28;19925;-79
2022/04/01 00:54:19;;;;;;;;;;;2.40;99.90;;;;;;4974700;28;20355;-77
2022/04/01 00:56:45;;;;;;;;;;;2.40;99.90;;;;;;4957871;28;20580;-76
2022/04/01 00:59:12;;;;;;;;;;;2.40;99.90;;;;;;4957365;28;19937;-77
2022/04/01 01:01:40;;;;;;;;;;;2.50;99.90;;;;;;4975598;28;20334;-78
2022/04/01 01:04:19;;;;;;;;;;;2.50;99.90;;;;;;4957697;28;20044;-77
2022/04/01 01:06:51;;;;;;;;;;;2.50;99.90;;;;;;4973200;28;19922;-77
2022/04/01 01:09:17;;;;;;;;;;;2.50;99.90;;;;;;4974730;28;19950;-78
2022/04/01 01:11:45;;;;;;;;;;;2.50;99.90;;;;;;4989794;28;19976;-77
2022/04/01 01:14:13;;;;;;;;;;;2.50;99.90;;;;;;4989645;28;19930;-77
2022/04/01 01:16:42;;;;;;;;;;;2.50;99.90;;;;;;4973367;28;19922;-77
2022/04/01 01:19:17;;;;;;;;;;;2.60;99.90;;;;;;4941927;28;19926;-78
2022/04/01 01:21:44;;;;;;;;;;;2.60;99.90;;;;;;4978237;28;19933;-78
2022/04/01 01:24:15;;;;;;;;;;;2.60;99.90;;;;;;4962014;28;19926;-77
2022/04/01 01:26:41;;;;;;;;;;;2.60;99.90;;;;;;4976764;28;20080;-78
2022/04/01 01:29:07;;;;;;;;;;;2.60;99.90;;;;;;4942552;28;19926;-77
2022/04/01 01:31:37;;;;;;;;;;;2.60;99.90;;;;;;4974323;28;19926;-77
2022/04/01 01:34:09;;;;;;;;;;;2.60;99.90;;;;;;4974412;28;19922;-76
2022/04/01 01:36:36;;;;;;;;;;;2.60;99.90;;;;;;4989285;28;19929;-78
2022/04/01 01:39:01;;;;;;;;;;;2.60;99.90;;;;;;4989361;28;19933;-77
2022/04/01 01:41:27;;;;;;;;;;;2.60;99.90;;;;;;4957059;28;19930;-76
2022/04/01 01:43:56;;;;;;;;;;;2.50;99.90;;;;;;4988997;28;20017;-77
2022/04/01 01:46:23;;;;;;;;;;;2.50;99.90;;;;;;4956575;28;20423;-77
2022/04/01 01:48:48;;;;;;;;;;;2.50;99.90;;;;;;4956710;28;19969;-78
2022/04/01 01:56:45;;;;;;;;;;;2.50;99.90;;;;;;4956276;28;19925;-76
2022/04/01 01:59:11;;;;;;;;;;;2.50;99.90;;;;;;4956332;28;19930;-77
2022/04/01 02:01:40;;;;;;;;;;;2.50;99.90;;;;;;4979488;28;20009;-77
2022/04/01 02:04:06;;;;;;;;;;;2.50;99.90;;;;;;4977295;28;19977;-76
2022/04/01 02:06:33;;;;;;;;;;;2.50;99.90;;;;;;4911710;29;19930;-76
2022/04/01 02:09:06;;;;;;;;;;;2.50;99.90;;;;;;4957072;29;19922;-76
2022/04/01 02:11:32;;;;;;;;;;;2.50;99.90;;;;;;4937541;29;20009;-78
2022/04/01 02:13:58;;;;;;;;;;;2.50;99.90;;;;;;4969620;28;19929;-77
2022/04/01 02:16:25;;;;;;;;;;;2.60;99.90;;;;;;4968750;28;20059;-77
2022/04/01 02:18:50;;;;;;;;;;;2.60;99.90;;;;;;4937215;29;19978;-74
2022/04/01 02:21:17;;;;;;;;;;;2.60;99.90;;;;;;4939136;29;19929;-75
2022/04/01 02:23:44;;;;;;;;;;;2.60;99.90;;;;;;4922880;29;19927;-75
2022/04/01 02:26:09;;;;;;;;;;;2.70;99.90;;;;;;4936582;29;20286;-77
2022/04/01 02:28:40;;;;;;;;;;;2.70;99.90;;;;;;4924228;29;19937;-77
2022/04/01 02:31:06;;;;;;;;;;;2.70;99.90;;;;;;4937688;29;20042;-76
2022/04/01 02:33:32;;;;;;;;;;;2.70;99.90;;;;;;4924708;29;20009;-77
2022/04/01 02:35:58;;;;;;;;;;;2.70;99.90;;;;;;4940304;29;19926;-78
2022/04/01 02:38:28;;;;;;;;;;;2.70;99.90;;;;;;4925490;29;19922;-76
2022/04/01 02:40:54;;;;;;;;;;;2.80;99.90;;;;;;4957956;28;19929;-76
2022/04/01 02:43:21;;;;;;;;;;;2.80;99.90;;;;;;4957124;29;20378;-77
2022/04/01 02:45:48;;;;;;;;;;;2.80;99.90;;;;;;4939713;29;19926;-77
2022/04/01 02:48:24;;;;;;;;;;;2.80;99.90;;;;;;4939619;29;19926;-76
2022/04/01 02:50:49;;;;;;;;;;;2.80;99.90;;;;;;4940056;29;19930;-77
2022/04/01 02:53:21;;;;;;;;;;;2.80;99.90;;;;;;4924134;29;19927;-76
2022/04/01 02:55:50;;;;;;;;;;;2.80;99.90;;;;;;4913173;29;19954;-78
2022/04/01 02:58:16;;;;;;;;;;;2.70;99.90;;;;;;4950012;29;20404;-77
2022/04/01 03:00:41;;;;;;;;;;;2.70;99.90;;;;;;4947503;28;19926;-77
2022/04/01 03:03:13;;;;;;;;;;;2.70;99.90;;;;;;4943318;28;20373;-77
2022/04/01 03:05:42;;;;;;;;;;;2.70;99.90;;;;;;4974620;28;19944;-77
2022/04/01 03:08:11;;;;;;;;;;;2.70;99.90;;;;;;4977100;28;20010;-76
2022/04/01 03:10:38;;;;;;;;;;;2.70;99.90;;;;;;4959320;28;19922;-77
2022/04/01 03:13:05;;;;;;;;;;;2.70;99.90;;;;;;4959104;28;20400;-76
2022/04/01 03:15:32;;;;;;;;;;;2.70;99.90;;;;;;4945086;28;19926;-77
2022/04/01 03:18:14;;;;;;;;;;;2.70;99.90;;;;;;4948786;29;19923;-77
2022/04/01 03:20:41;;;;;;;;;;;2.70;99.90;;;;;;4951059;29;20398;-76
2022/04/01 03:23:08;;;;;;;;;;;2.70;99.90;;;;;;4934907;29;19927;-77
2022/04/01 03:25:39;;;;;;;;;;;2.70;99.90;;;;;;4951046;29;19922;-77
2022/04/01 03:28:10;;;;;;;;;;;2.70;99.90;;;;;;4935239;29;20021;-77
2022/04/01 03:30:38;;;;;;;;;;;2.80;99.90;;;;;;4919602;29;19923;-76
2022/04/01 03:33:14;;;;;;;;;;;2.80;99.90;;;;;;4918975;29;19937;-76
2022/04/01 03:35:43;;;;;;;;;;;2.80;99.90;;;;;;4919372;29;20279;-77
2022/04/01 03:38:11;;;;;;;;;;;2.80;99.90;;;;;;4903824;29;19988;-77
2022/04/01 03:40:40;;;;;;;;;;;2.80;99.90;;;;;;4919461;29;19922;-76
2022/04/01 03:43:05;;;;;;;;;;;2.80;99.90;;;;;;4952206;29;19926;-76
2022/04/01 03:45:52;;;;;;;;;;;2.80;99.90;;;;;;4935956;29;20021;-76
2022/04/01 03:48:48;;;;;;;;;;;2.80;99.90;;;;;;4945417;28;19990;-77
2022/04/01 03:51:26;;;;;;;;;;;2.80;99.90;;;;;;4965344;28;19977;-76
2022/04/01 03:53:57;;;;;;;;;;;2.80;99.90;;;;;;4997785;28;19973;-78
2022/04/01 03:56:31;;;;;;;;;;;2.80;99.90;;;;;;4959442;28;19926;-76
2022/04/01 03:59:01;;;;;;;;;;;2.80;99.90;;;;;;4975414;28;19922;-77
2022/04/01 04:01:27;;;;;;;;;;;2.80;99.90;;;;;;4957652;28;19922;-77
2022/04/01 04:03:53;;;;;;;;;;;2.80;99.90;;;;;;4941815;28;19929;-77
2022/04/01 04:06:19;;;;;;;;;;;2.80;99.90;;;;;;4975546;28;20012;-77
2022/04/01 04:08:46;;;;;;;;;;;2.80;99.90;;;;;;4957868;28;20000;-77
2022/04/01 04:11:12;;;;;;;;;;;2.80;99.90;;;;;;4975432;28;19925;-78
2022/04/01 04:13:38;;;;;;;;;;;2.80;99.90;;;;;;4958235;28;19921;-77
2022/04/01 04:16:08;;;;;;;;;;;2.80;99.90;;;;;;4958194;28;19922;-77
2022/04/01 04:18:45;;;;;;;;;;;2.80;99.90;;;;;;4973940;28;19922;-77
2022/04/01 04:21:26;;;;;;;;;;;2.80;99.90;;;;;;4942107;28;20342;-76
2022/04/01 04:23:55;;;;;;;;;;;2.80;99.90;;;;;;4974215;28;19922;-75
2022/04/01 04:26:24;;;;;;;;;;;2.80;99.90;;;;;;4941621;28;20397;-77
2022/04/01 04:28:55;;;;;;;;;;;2.80;99.90;;;;;;4975093;28;19922;-78
2022/04/01 04:31:26;;;;;;;;;;;2.80;99.90;;;;;;4959565;28;20012;-76
2022/04/01 04:33:54;;;;;;;;;;;2.80;99.90;;;;;;4974250;28;20035;-77
2022/04/01 04:36:27;;;;;;;;;;;2.80;99.90;;;;;;4980576;28;19926;-77
2022/04/01 04:39:13;;;;;;;;;;;2.80;99.90;;;;;;4903048;29;19928;-76
2022/04/01 04:41:39;;;;;;;;;;;2.80;99.90;;;;;;4896543;29;19923;-76
2022/04/01 04:44:06;;;;;;;;;;;2.80;99.90;;;;;;4865005;29;19934;-75
2022/04/01 04:46:33;;;;;;;;;;;2.80;99.90;;;;;;4864843;29;20338;-76
2022/04/01 04:48:59;;;;;;;;;;;2.70;99.90;;;;;;4880101;29;19923;-77
2022/04/01 04:51:26;;;;;;;;;;;2.80;99.90;;;;;;4895774;29;20013;-76
2022/04/01 04:53:52;;;;;;;;;;;2.70;99.90;;;;;;4896069;29;19928;-76
2022/04/01 04:56:20;;;;;;;;;;;2.70;99.90;;;;;;4864999;29;19998;-75
2022/04/01 04:58:49;;;;;;;;;;;2.70;99.90;;;;;;4896167;29;20291;-75
2022/04/01 05:01:26;;;;;;;;;;;2.70;99.90;;;;;;4880668;29;19928;-76
2022/04/01 05:03:52;;;;;;;;;;;2.80;99.90;;;;;;4911390;29;19934;-76
2022/04/01 05:06:21;;;;;;;;;;;2.70;99.90;;;;;;4911466;29;19924;-75
2022/04/01 05:09:10;;;;;;;;;;;2.70;99.90;;;;;;4880210;29;19923;-76
2022/04/01 05:11:56;;;;;;;;;;;2.70;99.90;;;;;;4896447;29;19923;-76
2022/04/01 05:14:31;;;;;;;;;;;2.80;99.90;;;;;;4880313;29;20406;-76
2022/04/01 05:17:16;;;;;;;;;;;2.70;99.90;;;;;;4955670;28;19922;-76
2022/04/01 05:19:46;;;;;;;;;;;2.70;99.90;;;;;;4937365;29;19926;-76
2022/04/01 05:22:20;;;;;;;;;;;2.80;99.90;;;;;;4954676;29;20420;-76
2022/04/01 05:24:50;;;;;;;;;;;2.80;99.90;;;;;;4937562;29;19926;-77
2022/04/01 05:27:28;;;;;;;;;;;2.80;99.90;;;;;;4940587;29;19926;-77
2022/04/01 05:30:05;;;;;;;;;;;2.80;99.90;;;;;;4975158;28;19922;-79
2022/04/01 05:33:00;;;;;;;;;;;2.80;99.90;;;;;;4972003;28;19950;-79
2022/04/01 05:35:31;;;;;;;;;;;2.80;99.90;;;;;;4938080;29;19926;-77
2022/04/01 05:37:59;;;;;;;;;;;2.80;99.90;;;;;;4954517;29;19926;-76
2022/04/01 05:40:25;;;;;;;;;;;2.80;99.90;;;;;;4969598;28;20042;-76
2022/04/01 05:42:52;;;;;;;;;;;2.80;99.90;;;;;;4953016;29;19931;-76
2022/04/01 05:45:19;;;;;;;;;;;2.80;99.90;;;;;;4953849;29;19981;-76
2022/04/01 05:47:46;;;;;;;;;;;2.80;99.90;;;;;;4954257;29;19929;-76
2022/04/01 05:50:13;;;;;;;;;;;2.80;99.90;;;;;;4968884;28;20370;-76
2022/04/01 05:52:40;;;;;;;;;;;3.00;99.90;;;;;;4954382;29;19923;-76
2022/04/01 05:55:07;;;;;;;;;;;2.90;99.90;;;;;;4920864;29;20429;-76
2022/04/01 05:57:33;;;;;;;;;;;2.90;99.90;;;;;;4969171;28;19926;-76
2022/04/01 06:00:01;;;;;;;;;;;2.90;99.90;;;;;;4938039;29;20370;-77
2022/04/01 06:02:46;;;;;;;;;;;2.90;99.90;;;;;;4943698;28;19993;-77
2022/04/01 06:05:31;;;;;;;;;;;3.00;99.90;;;;;;4960480;28;19981;-77
2022/04/01 06:08:16;;;;;;;;;;;3.00;99.90;;;;;;4992759;28;19926;-78
2022/04/01 06:11:01;;;;;;;;;;;3.00;99.90;;;;;;4960652;28;20408;-76
2022/04/01 06:13:45;;;;;;;;;;;3.00;99.90;;;;;;4960495;28;19922;-76
2022/04/01 06:16:20;;;;;;;;;;;3.00;99.90;;;;;;4978126;28;20404;-77
2022/04/01 06:18:49;;;;;;;;;;;3.00;99.90;;;;;;4992391;28;19948;-77
2022/04/01 06:21:21;;;;;;;;;;;3.10;99.90;;;;;;4963734;28;19933;-75
2022/04/01 06:23:49;;;;;;;;;;;3.10;99.90;;;;;;4963577;28;19922;-74
2022/04/01 06:26:25;;;;;;;;;;;3.10;99.90;;;;;;4979000;28;19926;-75
2022/04/01 06:29:01;;;;;;;;;;;3.20;99.90;;;;;;4977152;28;20082;-76
2022/04/01 06:31:29;;;;;;;;;;;3.20;99.90;;;;;;4959355;28;20481;-76
2022/04/01 06:33:58;;;;;;;;;;;3.20;99.90;;;;;;4958918;28;19925;-78
2022/04/01 06:36:47;;;;;;;;;;;3.20;99.90;;;;;;4975651;28;19929;-75
2022/04/01 06:39:19;;;;;;;;;;;3.20;99.90;;;;;;4956531;28;19929;-76
2022/04/01 06:41:51;;;;;;;;;;;3.30;99.90;;;;;;4976814;28;20281;-77
2022/04/01 06:44:18;;;;;;;;;;;3.30;99.90;;;;;;4943539;28;20016;-75
2022/04/01 06:46:44;;;;;;;;;;;3.40;99.90;;;;;;4958515;28;19986;-76
2022/04/01 06:49:10;;;;;;;;;;;3.40;99.90;;;;;;4991351;28;19922;-75
2022/04/01 06:51:36;;;;;;;;;;;3.40;99.90;;;;;;4991587;28;19999;-75
2022/04/01 06:54:02;;;;;;;;;;;3.40;99.90;;;;;;4975160;28;19957;-77
2022/04/01 06:56:29;;;;;;;;;;;3.40;99.90;;;;;;4976295;28;19922;-77
2022/04/01 06:58:55;;;;;;;;;;;3.50;99.90;;;;;;4991567;28;20681;-76
2022/04/01 07:01:21;;;;;;;;;;;3.50;99.90;;;;;;4976215;28;20062;-77
2022/04/01 07:03:48;;;;;;;;;;;3.50;99.90;;;;;;4959076;28;20005;-78
2022/04/01 07:06:13;;;;;;;;;;;3.50;99.90;;;;;;4958385;28;19922;-77
2022/04/01 07:08:39;;;;;;;;;;;3.60;99.90;;;;;;4959140;28;19930;-76
2022/04/01 07:11:08;;;;;;;;;;;3.60;99.90;;;;;;4976268;28;19952;-77
2022/04/01 07:13:38;;;;;;;;;;;3.60;99.90;;;;;;4958845;28;19926;-77
2022/04/01 07:16:06;;;;;;;;;;;3.60;99.90;;;;;;4959246;28;20385;-76
2022/04/01 07:18:33;;;;;;;;;;;3.70;99.90;;;;;;4959198;28;19926;-76
2022/04/01 07:20:59;;;;;;;;;;;3.70;99.90;;;;;;4961570;28;20291;-76
2022/04/01 07:23:33;;;;;;;;;;;3.70;99.90;;;;;;4946125;28;19922;-75
2022/04/01 07:25:59;;;;;;;;;;;3.80;99.90;;;;;;4979624;28;19928;-76
2022/04/01 07:28:27;;;;;;;;;;;3.80;99.90;;;;;;4943042;28;19932;-76
2022/04/01 07:30:54;;;;;;;;;;;3.90;99.90;;;;;;4958711;28;20296;-76
2022/04/01 07:33:20;;;;;;;;;;;3.90;99.90;;;;;;4958243;28;19980;-77
2022/04/01 07:35:49;;;;;;;;;;;4.00;99.90;;;;;;4942251;28;19922;-75
2022/04/01 07:38:16;;;;;;;;;;;4.00;99.90;;;;;;4974142;28;19926;-78
2022/04/01 07:40:42;;;;;;;;;;;4.00;99.90;;;;;;4958382;28;19969;-77
2022/04/01 07:43:09;;;;;;;;;;;4.10;99.90;;;;;;4957776;28;19977;-77
2022/04/01 07:45:37;;;;;;;;;;;4.10;99.90;;;;;;4958413;28;19925;-76
2022/04/01 07:48:03;;;;;;;;;;;4.10;99.90;;;;;;4942126;28;19933;-78
2022/04/01 07:50:29;;;;;;;;;;;4.20;99.90;;;;;;4958443;28;19922;-78
2022/04/01 07:52:54;;;;;;;;;;;4.20;99.90;;;;;;4942123;28;20287;-78
2022/04/01 07:55:20;;;;;;;;;;;4.30;99.90;;;;;;4958629;28;19980;-78
2022/04/01 07:57:47;;;;;;;;;;;4.30;99.90;;;;;;4974711;28;19929;-78
2022/04/01 08:00:14;;;;;;;;;;;4.40;99.90;;;;;;4975165;28;19929;-78
2022/04/01 08:02:41;;;;;;;;;;;4.40;99.90;;;;;;4958769;28;19926;-79
2022/04/01 08:05:10;;;;;;;;;;;4.50;99.90;;;;;;4956666;28;19929;-79
2022/04/01 08:07:36;;;;;;;;;;;4.50;99.90;;;;;;4939803;28;20306;-79
2022/04/01 08:10:11;;;;;;;;;;;4.60;99.90;;;;;;4977246;28;20024;-78
2022/04/01 08:12:37;;;;;;;;;;;4.70;99.90;;;;;;4974689;28;19933;-78
2022/04/01 08:15:04;;;;;;;;;;;4.70;99.90;;;;;;4976848;28;20381;-78
2022/04/01 08:17:31;;;;;;;;;;;4.70;99.90;;;;;;4993236;28;19926;-78
2022/04/01 08:19:56;;;;;;;;;;;4.70;99.90;;;;;;4962234;28;20021;-77
2022/04/01 08:22:22;;;;;;;;;;;4.70;99.90;;;;;;4974285;28;19926;-78
2022/04/01 08:24:49;;;;;;;;;;;4.80;99.90;;;;;;4972809;28;20011;-78
2022/04/01 08:27:15;;;;;;;;;;;4.90;99.90;;;;;;4973295;28;20003;-77
2022/04/01 08:29:41;;;;;;;;;;;4.90;99.90;;;;;;4975216;28;19921;-77
2022/04/01 08:32:07;;;;;;;;;;;5.00;99.90;;;;;;4957610;28;19977;-77
2022/04/01 08:34:33;;;;;;;;;;;5.00;99.90;;;;;;4975602;28;19929;-78
2022/04/01 08:36:59;;;;;;;;;;;5.00;99.90;;;;;;4974588;28;19968;-78
2022/04/01 08:39:24;;;;;;;;;;;5.10;99.90;;;;;;4990347;28;19926;-78
2022/04/01 08:41:50;;;;;;;;;;;5.20;99.90;;;;;;4975167;28;19933;-77
2022/04/01 08:44:16;;;;;;;;;;;5.20;99.90;;;;;;4957575;28;19976;-77
2022/04/01 08:46:42;;;;;;;;;;;5.20;99.90;;;;;;4990014;28;19930;-77
2022/04/01 08:49:16;;;;;;;;;;;5.20;99.90;;;;;;4989682;28;20012;-76
2022/04/01 08:51:42;;;;;;;;;;;5.10;99.90;;;;;;4941228;28;20013;-76
2022/04/01 08:54:07;;;;;;;;;;;5.10;99.90;;;;;;4956976;28;19933;-75
2022/04/01 08:56:35;;;;;;;;;;;5.00;99.90;;;;;;4957074;28;20400;-76
2022/04/01 08:59:02;;;;;;;;;;;5.00;99.90;;;;;;4957266;28;19933;-76
2022/04/01 09:01:48;;;;;;;;;;;5.10;99.90;;;;;;4956900;28;19922;-76
2022/04/01 09:04:18;;;;;;;;;;;5.20;99.90;;;;;;4956525;28;19922;-77
2022/04/01 09:06:45;;;;;;;;;;;5.30;99.90;;;;;;4956465;28;19969;-75
2022/04/01 09:09:24;;;;;;;;;;;5.30;99.90;;;;;;4940308;28;20629;-75
2022/04/01 09:12:13;;;;;;;;;;;5.50;99.90;;;;;;4936761;29;20337;-75
2022/04/01 09:14:40;;;;;;;;;;;5.60;99.90;;;;;;4935610;29;20370;-76
2022/04/01 09:17:05;;;;;;;;;;;5.60;99.90;;;;;;4951596;29;20402;-76
2022/04/01 09:19:32;;;;;;;;;;;5.80;99.90;;;;;;4935915;29;20024;-76
2022/04/01 09:22:14;;;;;;;;;;;5.80;99.90;;;;;;4920457;29;19942;-76
2022/04/01 09:24:51;;;;;;;;;;;5.80;99.90;;;;;;4952264;29;20390;-76
2022/04/01 09:27:16;;;;;;;;;;;5.70;99.50;;;;;;4935962;29;19929;-77
2022/04/01 09:29:42;;;;;;;;;;;5.70;99.90;;;;;;4952448;29;19928;-77
2022/04/01 09:32:08;;;;;;;;;;;5.80;99.90;;;;;;4952385;29;20001;-76
2022/04/01 09:34:37;;;;;;;;;;;5.80;99.90;;;;;;4920244;29;19919;-77
2022/04/01 09:37:04;;;;;;;;;;;5.90;99.90;;;;;;4935574;29;20020;-77
2022/04/01 09:39:30;;;;;;;;;;;6.00;99.90;;;;;;4905017;29;20455;-77
2022/04/01 09:42:00;;;;;;;;;;;6.00;98.90;;;;;;4923172;28;19929;-76
2022/04/01 09:44:31;;;;;;;;;;;6.10;98.70;;;;;;4950828;29;19929;-77
2022/04/01 09:46:58;;;;;;;;;;;6.10;99.20;;;;;;4920349;29;20510;-77
2022/04/01 09:49:33;;;;;;;;;;;6.20;99.90;;;;;;4936350;29;19922;-76
2022/04/01 09:52:03;;;;;;;;;;;6.20;99.70;;;;;;4936723;29;19927;-76
2022/04/01 09:54:28;;;;;;;;;;;6.20;99.30;;;;;;4937116;29;19922;-76
2022/04/01 09:56:59;;;;;;;;;;;6.20;99.90;;;;;;4937708;29;19945;-77
2022/04/01 09:59:31;;;;;;;;;;;6.20;99.10;;;;;;4938975;29;19958;-77
2022/04/01 10:01:58;;;;;;;;;;;6.20;99.30;;;;;;4936852;29;19929;-75
2022/04/01 10:04:24;;;;;;;;;;;6.20;98.40;;;;;;4935722;29;19922;-78
2022/04/01 10:07:05;;;;;;;;;;;6.10;99.30;;;;;;4913277;29;19923;-77
2022/04/01 10:09:31;;;;;;;;;;;6.00;99.30;;;;;;4929289;29;19926;-77
2022/04/01 10:12:02;;;;;;;;;;;5.90;99.00;;;;;;4929683;29;19923;-77
2022/04/01 10:14:31;;;;;;;;;;;5.90;99.00;;;;;;4931148;29;19931;-78
2022/04/01 10:17:00;;;;;;;;;;;5.80;99.30;;;;;;4916274;29;19969;-76
2022/04/01 10:19:31;;;;;;;;;;;5.70;99.90;;;;;;4932614;29;19926;-76
2022/04/01 10:22:01;;;;;;;;;;;5.60;99.90;;;;;;4932471;29;19984;-76
2022/04/01 10:24:33;;;;;;;;;;;5.60;99.90;;;;;;4916521;29;19922;-77
2022/04/01 10:27:23;;;;;;;;;;;5.60;99.90;;;;;;4932762;29;19927;-76
2022/04/01 10:29:49;;;;;;;;;;;5.40;99.90;;;;;;4933621;29;19923;-76
2022/04/01 10:32:28;;;;;;;;;;;5.30;99.90;;;;;;4901449;29;19922;-77
2022/04/01 10:34:55;;;;;;;;;;;5.30;99.90;;;;;;4916226;29;19930;-76
2022/04/01 10:37:23;;;;;;;;;;;5.30;99.90;;;;;;4924110;28;19922;-75
2022/04/01 10:39:58;;;;;;;;;;;5.20;99.90;;;;;;4956590;28;20293;-76
2022/04/01 10:42:30;;;;;;;;;;;5.30;99.90;;;;;;4988161;28;20024;-76
2022/04/01 10:44:57;;;;;;;;;;;5.30;99.90;;;;;;4955307;28;19922;-75
2022/04/01 10:51:36;;;;;;;;;;;5.30;99.90;;;;;;4988252;28;19981;-76
2022/04/01 10:53:31;;;;;;;;;;;5.40;99.90;;;;;;4959021;28;20397;-76
2022/04/01 10:56:16;;;;;;;;;;;5.50;99.90;;;;;;4975658;28;20301;-77
2022/04/01 10:59:00;;;;;;;;;;;5.60;99.90;;;;;;4975795;28;19926;-76
2022/04/01 11:01:36;;;;;;;;;;;5.90;99.90;;;;;;4947148;29;19986;-77
2022/04/01 11:04:08;;;;;;;;;;;6.00;99.90;;;;;;4924278;29;19969;-77
2022/04/01 11:06:49;;;;;;;;;;;6.10;99.90;;;;;;4936112;29;19976;-76
2022/04/01 11:09:34;;;;;;;;;;;6.10;99.90;;;;;;4968448;28;19966;-77
2022/04/01 11:12:21;;;;;;;;;;;6.20;99.90;;;;;;4920080;29;19922;-76
2022/04/01 11:14:53;;;;;;;;;;;6.40;99.90;;;;;;4920262;29;19930;-77
2022/04/01 11:17:20;;;;;;;;;;;6.40;98.50;;;;;;4935920;29;20017;-76
2022/04/01 11:20:05;;;;;;;;;;;6.60;98.20;;;;;;4904663;29;19978;-76
2022/04/01 11:22:46;;;;;;;;;;;6.90;98.40;;;;;;4951932;29;19928;-77
2022/04/01 11:25:17;;;;;;;;;;;7.10;99.90;;;;;;4936134;29;20397;-76
2022/04/01 11:27:50;;;;;;;;;;;7.20;98.70;;;;;;4936280;29;19933;-77
2022/04/01 11:30:17;;;;;;;;;;;7.40;98.50;;;;;;4936231;29;19930;-76
2022/04/01 11:32:44;;;;;;;;;;;7.50;98.00;;;;;;4951992;29;19927;-76
2022/04/01 11:35:11;;;;;;;;;;;7.50;98.50;;;;;;4919848;29;20008;-76
2022/04/01 11:37:39;;;;;;;;;;;7.60;98.30;;;;;;4935765;29;19996;-77
2022/04/01 11:40:15;;;;;;;;;;;7.80;97.10;;;;;;4920111;29;20298;-77
2022/04/01 11:43:02;;;;;;;;;;;8.00;97.00;;;;;;4935586;29;19978;-76
2022/04/01 11:46:07;;;;;;;;;;;8.10;96.20;;;;;;4935719;29;19937;-76
2022/04/01 11:48:33;;;;;;;;;;;8.20;96.10;;;;;;4862362;29;20023;-76
2022/04/01 11:51:06;;;;;;;;;;;8.30;94.50;;;;;;4840687;29;19924;-76
2022/04/01 11:53:43;;;;;;;;;;;8.50;95.60;;;;;;4825541;29;20027;-76
2022/04/01 11:56:10;;;;;;;;;;;8.60;93.60;;;;;;4840885;29;20024;-76
2022/04/01 11:58:55;;;;;;;;;;;8.80;94.30;;;;;;4856079;29;19932;-77
2022/04/01 12:01:28;;;;;;;;;;;9.00;94.30;;;;;;4851473;29;19924;-76
2022/04/01 12:04:04;;;;;;;;;;;9.10;92.00;;;;;;4859506;29;20388;-75
2022/04/01 12:09:17;;;;;;;;;;;9.20;91.10;;;;;;4878313;29;19923;-76
2022/04/01 12:11:45;;;;;;;;;;;9.30;90.80;;;;;;4894702;29;20439;-76
2022/04/01 12:14:11;;;;;;;;;;;9.40;88.30;;;;;;4862537;29;20010;-75
2022/04/01 12:16:40;;;;;;;;;;;9.50;90.20;;;;;;4877439;29;20031;-76
2022/04/01 12:19:06;;;;;;;;;;;9.90;90.20;;;;;;4901375;29;19923;-74
2022/04/01 12:21:32;;;;;;;;;;;10.00;79.50;;;;;;4956501;28;20013;-75
2022/04/01 12:23:59;;;;;;;;;;;10.10;76.60;;;;;;4938585;29;20021;-76
2022/04/01 12:26:25;;;;;;;;;;;10.40;80.70;;;;;;4938433;29;19922;-76
2022/04/01 12:28:53;;;;;;;;;;;10.70;70.10;;;;;;4953270;29;19929;-75
2022/04/01 12:31:24;;;;;;;;;;;10.80;76.70;;;;;;4921847;29;19922;-75
2022/04/01 12:33:51;;;;;;;;;;;11.10;73.30;;;;;;4938210;29;19974;-75
2022/04/01 12:36:50;;;;;;;;;;;11.30;60.40;;;;;;4937922;29;19926;-77
2022/04/01 12:39:15;;;;;;;;;;;11.40;54.90;;;;;;4938007;29;20013;-76
2022/04/01 12:41:48;;;;;;;;;;;11.60;68.20;;;;;;4953861;29;20030;-75
2022/04/01 12:44:14;;;;;;;;;;;11.50;60.80;;;;;;4954177;28;19929;-77
2022/04/01 12:46:46;;;;;;;;;;;11.60;58.30;;;;;;4953816;29;19923;-77
2022/04/01 12:49:15;;;;;;;;;;;11.50;54.40;;;;;;4954916;28;20017;-76
2022/04/01 12:51:48;;;;;;;;;;;11.70;59.30;;;;;;4970317;28;20009;-76
2022/04/01 12:54:23;;;;;;;;;;;12.20;56.60;;;;;;4937886;29;19922;-77
2022/04/01 12:56:51;;;;;;;;;;;12.20;54.60;;;;;;4937454;29;20042;-77
2022/04/01 12:59:18;;;;;;;;;;;12.50;52.30;;;;;;4953232;29;20020;-76
2022/04/01 13:01:46;;;;;;;;;;;12.90;51.40;;;;;;4969504;28;19938;-77
2022/04/01 13:04:19;;;;;;;;;;;13.30;49.30;;;;;;4922127;29;19934;-76
2022/04/01 13:07:03;;;;;;;;;;;13.50;49.20;;;;;;4960293;28;20400;-75
2022/04/01 13:09:29;;;;;;;;;;;13.40;45.00;;;;;;4989411;28;20401;-76
2022/04/01 13:11:58;;;;;;;;;;;13.80;46.10;;;;;;4974443;28;19926;-75
2022/04/01 13:14:27;;;;;;;;;;;13.70;46.40;;;;;;4960113;28;19929;-76
2022/04/01 13:16:54;;;;;;;;;;;13.40;44.10;;;;;;4974352;28;19983;-77
2022/04/01 13:19:41;;;;;;;;;;;13.80;46.20;;;;;;4956474;28;19961;-76
2022/04/01 13:22:07;;;;;;;;;;;14.10;46.20;;;;;;4972613;28;19947;-76
2022/04/01 13:24:39;;;;;;;;;;;14.40;43.30;;;;;;4956400;28;19926;-76
2022/04/01 13:27:06;;;;;;;;;;;14.30;42.70;;;;;;4973711;28;19969;-77
2022/04/01 13:29:33;;;;;;;;;;;14.20;45.10;;;;;;4956085;28;19930;-74
2022/04/01 13:31:58;;;;;;;;;;;14.10;45.80;;;;;;4940072;28;19922;-76
2022/04/01 13:34:24;;;;;;;;;;;14.10;42.80;;;;;;4940627;28;19929;-76
2022/04/01 13:36:55;;;;;;;;;;;14.00;42.00;;;;;;4956519;28;19933;-76
2022/04/01 13:39:21;;;;;;;;;;;14.20;42.30;;;;;;4940180;28;19922;-77
2022/04/01 13:41:47;;;;;;;;;;;14.70;43.70;;;;;;4956093;28;20024;-76
2022/04/01 13:44:13;;;;;;;;;;;14.60;42.10;;;;;;4955980;28;19926;-76
2022/04/01 13:46:38;;;;;;;;;;;14.10;41.70;;;;;;4972261;28;20012;-76
2022/04/01 13:49:05;;;;;;;;;;;13.80;41.30;;;;;;4971956;28;20267;-76
2022/04/01 13:51:32;;;;;;;;;;;13.90;41.40;;;;;;4973562;28;19962;-76
2022/04/01 13:53:58;;;;;;;;;;;13.90;42.50;;;;;;4957437;28;19956;-76
2022/04/01 13:56:24;;;;;;;;;;;13.70;44.10;;;;;;4972898;28;19987;-75
2022/04/01 13:58:50;;;;;;;;;;;13.40;45.10;;;;;;4972178;28;20029;-76
2022/04/01 14:01:16;;;;;;;;;;;13.00;45.20;;;;;;4955880;28;20392;-76
2022/04/01 14:03:41;;;;;;;;;;;12.90;46.30;;;;;;4956646;28;19925;-76
2022/04/01 14:06:07;;;;;;;;;;;13.00;45.00;;;;;;4958028;28;20278;-80
2022/04/01 14:08:34;;;;;;;;;;;13.00;45.50;;;;;;4973741;28;19926;-75
2022/04/01 14:11:01;;;;;;;;;;;13.30;44.00;;;;;;4956141;28;20021;-75
2022/04/01 14:13:26;;;;;;;;;;;13.70;42.90;;;;;;4955490;28;19922;-76
2022/04/01 14:15:52;;;;;;;;;;;14.20;44.10;;;;;;4971820;28;20292;-77
2022/04/01 14:18:18;;;;;;;;;;;14.30;41.30;;;;;;4939321;28;19922;-75
2022/04/01 14:20:46;;;;;;;;;;;14.40;41.20;;;;;;4973288;28;19929;-75
2022/04/01 14:23:13;;;;;;;;;;;14.70;41.20;;;;;;4973559;28;19965;-75
2022/04/01 14:25:44;;;;;;;;;;;14.50;40.70;;;;;;4959623;28;19925;-75
2022/04/01 14:28:10;;;;;;;;;;;14.40;41.10;;;;;;4977136;28;19922;-76
2022/04/01 14:30:35;;;;;;;;;;;14.60;41.50;;;;;;4959355;28;19933;-76
2022/04/01 14:33:01;;;;;;;;;;;14.70;40.90;;;;;;4959583;28;20008;-76
2022/04/01 14:35:28;;;;;;;;;;;14.70;41.70;;;;;;4960417;28;19926;-75
2022/04/01 14:37:56;;;;;;;;;;;14.00;41.00;;;;;;4961020;28;19922;-75
2022/04/01 14:40:25;;;;;;;;;;;13.60;42.60;;;;;;4977645;28;19932;-75
2022/04/01 14:42:51;;;;;;;;;;;13.30;43.20;;;;;;4975314;28;19921;-76
2022/04/01 14:45:17;;;;;;;;;;;13.00;42.90;;;;;;4959177;28;19990;-75
2022/04/01 14:47:43;;;;;;;;;;;12.60;42.90;;;;;;4976778;28;20029;-75
2022/04/01 14:50:10;;;;;;;;;;;12.30;44.70;;;;;;4959072;28;19921;-77
2022/04/01 14:52:35;;;;;;;;;;;12.20;45.90;;;;;;4959052;28;19926;-75
2022/04/01 14:55:01;;;;;;;;;;;12.60;46.70;;;;;;4959194;28;19922;-76